Home > Products > Valid Products > SSM

000
SMZS01 NSTU 292357
SSMPPG
AAXX 30004
91765 11456 81421 10250 20238 30129 40132 56015 60674 78188 8687/
333 20241 56333 58005 70671 555 93000=




000
SMZS01 NSTU 291802
SSMPPG
AAXX 29184
91765 11467 81419 10255 20239 30127 40130 52003 60331 78182 8542/
333 56399 70338 555 92918=




000
SMZS01 NSTU 291159
SSMPPG
AAXX 29124
91765 32566 50000 10246 20229 30132 40135 57003 85400 333 10293
569// 58001 70020 555 92912=




000
SMZS01 NSTU 290604
SSMPPG
AAXX 29064
91765 31666 60000 10268 20226 30124 40127 52015 70162 84570 333
5609/ 70020 555 92906=




000
SMZS01 NSTU 282357
SSMPPG
AAXX 29004
91765 11569 70608 10279 20236 30124 40127 56019 60024 76082 84870
333 20248 5611/ 58002 70015 555 92900=




000
SMZS01 NSTU 281802
SSMPPG
AAXX 28184
91765 11467 81216 10252 20237 30124 40127 52010 60021 78086 8582/
333 56399 70025 555 92818=




000
SMZS01 NSTU 281158
SSMPPG
AAXX 28124
91765 32566 81318 10261 20226 30130 40134 57008 8541/ 333 10265
56399 58010 70018 555 92812=




000
SMZS01 NSTU 280601
SSMPPG
AAXX 28064
91765 11566 71315 10260 20220 30129 40132 52017 69901 70282 87800
333 5639/ 70023 555 92806=




000
SMZS01 NSTU 280000
SSMPPG
AAXX 28004
91765 11569 81316 10264 20216 30122 40125 56020 60024 70282 888//
333 20229 56399 58005 70023 555 92800=




000
SMZS01 NSTU 271802
SSMPPG
AAXX 27184
91765 11466 81219 10237 20211 30125 40129 52012 69981 78082 8522/
333 56399 70013 555 92718=




000
SMZS01 NSTU 271159
SSMPPG
AAXX 27124
91765 11566 71411 10249 20200 30120 40124 57008 69951 70282 85410
333 10258 5639/ 59006 70005 555 92712=




000
SMZS01 NSTU 270557
SSMPPG
AAXX 27064
91765 32566 81617 10247 20187 30120 40124 52017 8552/ 333 56499
70000 555 92706=




    US Dept of Commerce
    National Oceanic and Atmospheric Administration
    National Weather Service
    1325 East West Highway
    Silver Spring, MD 20910
    Page Author: NWS Internet Services Team
Disclaimer
Information Quality
Credits
Glossary
Privacy Policy
Freedom of Information Act (FOIA)
About Us
Career Opportunities